Blounts Creek, North Carolina
Current Conditions -  °F | °C
As of 10:35 AM on Monday 24 Nov 2014 (Local Time) from KOCW Reporting Station
Broken Clouds Broken Clouds  
Wind Chill: 70°   Ceiling: 2200
Heat Index: 70°   Visibility: 10mi
Dew Point: 65°   Wind: 9mph
Humidity: 86%   Direction: 210°SSW
Pressure: 29.88"   Gusts: NA
Location:  35.35°N, 76.96°W
Report Text: KOCW 241535Z AUTO 21008KT 10SM SCT015 BKN022 BKN100 21/19 A2988 RMK AO2 T02100185
Loading
Personal Weather Stations






























Interactive Weather Map New forecast layout! Learn more

10-Day Weather Forecast

Advertisements
Track Severe Weather on mobile